Time;durP1;ratioP1;P1;durP2;ratioP2;P2;SDS_P1;SDS_P2;PMS_P1;PMS_P2;Temp;Humidity;BMP_temperature;BMP_pressure;BME280_temperature;BME280_humidity;BME280_pressure;Samples;Min_cycle;Max_cycle;Signal;HPM_P1;HPM_P2
2022/04/04 00:01:11;;;;;;;20.23;12.35;;;;;;;;;;4950749;28;102129;-74
2022/04/04 00:03:38;;;;;;;20.45;11.13;;;;;;;;;;4967888;28;100451;-73
2022/04/04 00:06:05;;;;;;;19.45;10.30;;;;;;;;;;4934020;28;101145;-73
2022/04/04 00:08:33;;;;;;;17.95;10.35;;;;;;;;;;4935082;28;100144;-73
2022/04/04 00:11:00;;;;;;;18.65;10.02;;;;;;;;;;4951136;28;100178;-73
2022/04/04 00:13:28;;;;;;;15.25;9.75;;;;;;;;;;4933276;28;100929;-73
2022/04/04 00:15:55;;;;;;;19.30;10.40;;;;;;;;;;4968140;28;102271;-73
2022/04/04 00:18:22;;;;;;;19.25;11.32;;;;;;;;;;4949589;28;100121;-73
2022/04/04 00:20:51;;;;;;;18.75;10.15;;;;;;;;;;4935161;28;100083;-74
2022/04/04 00:23:18;;;;;;;17.23;9.80;;;;;;;;;;4952401;28;100248;-74
2022/04/04 00:25:46;;;;;;;20.65;9.88;;;;;;;;;;4953837;28;100677;-73
2022/04/04 00:28:13;;;;;;;17.55;9.45;;;;;;;;;;4971199;28;100108;-74
2022/04/04 00:30:41;;;;;;;14.10;8.77;;;;;;;;;;4971488;28;100157;-74
2022/04/04 00:33:08;;;;;;;14.38;8.27;;;;;;;;;;4953973;28;100910;-73
2022/04/04 00:35:35;;;;;;;14.70;9.02;;;;;;;;;;4953595;28;100559;-74
2022/04/04 00:38:03;;;;;;;16.83;9.38;;;;;;;;;;4971492;28;100015;-73
2022/04/04 00:40:30;;;;;;;17.98;8.77;;;;;;;;;;4971686;28;100116;-74
2022/04/04 00:42:57;;;;;;;15.52;8.88;;;;;;;;;;4953886;28;100630;-73
2022/04/04 00:45:24;;;;;;;14.65;8.48;;;;;;;;;;4970989;28;100665;-74
2022/04/04 00:47:51;;;;;;;14.88;8.50;;;;;;;;;;4971429;28;99986;-73
2022/04/04 00:50:18;;;;;;;16.60;8.93;;;;;;;;;;4953951;28;100421;-74
2022/04/04 00:52:46;;;;;;;14.15;8.43;;;;;;;;;;4970424;28;101499;-74
2022/04/04 00:55:12;;;;;;;18.88;9.38;;;;;;;;;;4953325;28;100591;-74
2022/04/04 00:57:39;;;;;;;15.13;8.88;;;;;;;;;;4921257;28;101194;-74
2022/04/04 01:00:09;;;;;;;18.48;8.93;;;;;;;;;;4953559;28;100121;-75
2022/04/04 01:02:36;;;;;;;14.00;8.65;;;;;;;;;;4953607;28;100371;-74
2022/04/04 01:05:04;;;;;;;16.35;9.35;;;;;;;;;;4970239;28;100620;-74
2022/04/04 01:07:31;;;;;;;16.45;8.48;;;;;;;;;;4952971;28;101582;-74
2022/04/04 01:09:58;;;;;;;16.40;9.48;;;;;;;;;;4971457;28;100163;-74
2022/04/04 01:12:26;;;;;;;16.80;8.95;;;;;;;;;;4953452;28;100391;-74
2022/04/04 01:14:53;;;;;;;20.13;8.20;;;;;;;;;;4968999;28;100627;-74
2022/04/04 01:17:25;;;;;;;13.85;7.75;;;;;;;;;;4970248;28;100034;-74
2022/04/04 01:19:52;;;;;;;13.82;6.32;;;;;;;;;;4938786;28;100185;-74
2022/04/04 01:22:19;;;;;;;12.63;6.78;;;;;;;;;;4953109;28;100399;-74
2022/04/04 01:24:46;;;;;;;13.05;7.53;;;;;;;;;;4952864;28;100636;-74
2022/04/04 01:27:13;;;;;;;13.23;7.05;;;;;;;;;;4937249;28;101169;-74
2022/04/04 01:29:40;;;;;;;10.30;6.30;;;;;;;;;;4953654;28;100187;-74
2022/04/04 01:32:08;;;;;;;13.65;6.85;;;;;;;;;;4936906;28;100232;-74
2022/04/04 01:34:36;;;;;;;12.23;7.25;;;;;;;;;;4969583;28;100641;-74
2022/04/04 01:37:03;;;;;;;12.15;6.43;;;;;;;;;;4970454;28;100206;-74
2022/04/04 01:39:30;;;;;;;11.50;6.97;;;;;;;;;;4970526;28;100128;-74
2022/04/04 01:41:57;;;;;;;13.25;6.28;;;;;;;;;;4969632;28;100461;-74
2022/04/04 01:44:24;;;;;;;11.95;6.70;;;;;;;;;;4970009;28;100562;-75
2022/04/04 01:46:51;;;;;;;15.60;7.25;;;;;;;;;;4969714;28;100194;-72
2022/04/04 01:49:18;;;;;;;11.80;7.22;;;;;;;;;;4969104;28;100955;-72
2022/04/04 01:51:45;;;;;;;10.38;6.55;;;;;;;;;;4953468;28;100287;-72
2022/04/04 01:54:13;;;;;;;14.45;6.85;;;;;;;;;;4952992;28;100794;-73
2022/04/04 01:56:41;;;;;;;16.13;7.22;;;;;;;;;;4971140;28;100309;-73
2022/04/04 01:59:08;;;;;;;16.27;8.02;;;;;;;;;;4971539;28;100207;-74
2022/04/04 02:01:36;;;;;;;14.43;7.40;;;;;;;;;;4953235;28;100410;-74
2022/04/04 02:04:03;;;;;;;14.45;7.30;;;;;;;;;;4953191;28;100586;-74
2022/04/04 02:06:30;;;;;;;13.57;7.13;;;;;;;;;;4952591;28;100192;-74
2022/04/04 02:08:57;;;;;;;14.82;7.68;;;;;;;;;;4920877;28;100168;-73
2022/04/04 02:11:24;;;;;;;15.73;7.43;;;;;;;;;;4970681;28;100331;-74
2022/04/04 02:13:51;;;;;;;12.43;7.15;;;;;;;;;;4953054;28;100722;-73
2022/04/04 02:16:18;;;;;;;11.18;6.68;;;;;;;;;;4952049;28;100582;-73
2022/04/04 02:18:45;;;;;;;14.38;7.07;;;;;;;;;;4953345;28;100137;-73
2022/04/04 02:21:11;;;;;;;13.52;7.43;;;;;;;;;;4970435;28;100250;-73
2022/04/04 02:23:38;;;;;;;13.57;6.78;;;;;;;;;;4970621;28;100531;-74
2022/04/04 02:26:05;;;;;;;10.20;6.53;;;;;;;;;;4970243;28;100346;-74
2022/04/04 02:28:32;;;;;;;11.73;6.68;;;;;;;;;;4937106;28;100056;-74
2022/04/04 02:30:59;;;;;;;9.35;6.00;;;;;;;;;;4969479;28;101459;-73
2022/04/04 02:33:26;;;;;;;12.40;5.82;;;;;;;;;;4952822;28;100685;-73
2022/04/04 02:35:53;;;;;;;10.15;6.30;;;;;;;;;;4953380;28;100098;-73
2022/04/04 02:38:22;;;;;;;13.05;5.60;;;;;;;;;;4969588;28;100075;-73
2022/04/04 02:40:49;;;;;;;10.70;6.07;;;;;;;;;;4936615;28;100491;-74
2022/04/04 02:43:16;;;;;;;11.95;5.65;;;;;;;;;;4969093;28;100774;-73
2022/04/04 02:45:43;;;;;;;9.40;5.45;;;;;;;;;;4952834;28;100460;-73
2022/04/04 02:48:10;;;;;;;9.95;5.47;;;;;;;;;;4970429;28;100068;-73
2022/04/04 02:50:37;;;;;;;9.85;5.88;;;;;;;;;;4970322;28;100309;-73
2022/04/04 02:53:04;;;;;;;10.00;5.38;;;;;;;;;;4948527;28;100894;-74
2022/04/04 02:58:16;;;;;;;12.20;4.95;;;;;;;;;;4955094;28;100088;-73
2022/04/04 03:00:43;;;;;;;9.18;5.50;;;;;;;;;;4951009;28;101642;-73
2022/04/04 03:03:10;;;;;;;9.65;5.35;;;;;;;;;;4969699;28;100743;-73
2022/04/04 03:05:39;;;;;;;11.07;5.85;;;;;;;;;;4969341;28;100157;-74
2022/04/04 03:08:06;;;;;;;7.60;5.05;;;;;;;;;;4952327;28;100107;-73
2022/04/04 03:10:33;;;;;;;10.52;5.70;;;;;;;;;;4969829;28;100355;-73
2022/04/04 03:13:02;;;;;;;9.43;6.00;;;;;;;;;;4970001;28;100601;-74
2022/04/04 03:15:29;;;;;;;12.95;6.38;;;;;;;;;;4952710;28;100053;-73
2022/04/04 03:17:56;;;;;;;11.50;6.35;;;;;;;;;;4952707;28;100222;-73
2022/04/04 03:20:25;;;;;;;10.50;6.20;;;;;;;;;;4969253;28;100367;-74
2022/04/04 03:22:53;;;;;;;11.75;5.53;;;;;;;;;;4936086;28;100599;-74
2022/04/04 03:25:20;;;;;;;11.00;5.63;;;;;;;;;;4936372;28;99965;-72
2022/04/04 03:27:47;;;;;;;10.82;5.85;;;;;;;;;;4969844;28;100389;-73
2022/04/04 03:30:23;;;;;;;9.75;6.32;;;;;;;;;;4969535;28;100318;-73
2022/04/04 03:32:50;;;;;;;13.68;7.47;;;;;;;;;;4953349;28;100521;-74
2022/04/04 03:35:17;;;;;;;11.02;6.05;;;;;;;;;;4969582;28;100208;-74
2022/04/04 03:37:49;;;;;;;12.38;6.47;;;;;;;;;;4952566;28;100119;-74
2022/04/04 03:40:19;;;;;;;11.55;5.60;;;;;;;;;;4952204;28;100343;-74
2022/04/04 03:42:48;;;;;;;11.30;6.55;;;;;;;;;;4969200;28;100637;-73
2022/04/04 03:45:15;;;;;;;12.82;6.72;;;;;;;;;;4969041;28;100174;-72
2022/04/04 03:47:42;;;;;;;10.27;5.97;;;;;;;;;;4952320;28;100029;-72
2022/04/04 03:50:14;;;;;;;11.52;6.72;;;;;;;;;;4919437;28;101702;-72
2022/04/04 03:52:41;;;;;;;12.23;6.20;;;;;;;;;;4936763;28;100521;-71
2022/04/04 03:55:09;;;;;;;10.82;5.97;;;;;;;;;;4969222;28;100016;-72
2022/04/04 03:57:36;;;;;;;12.45;6.05;;;;;;;;;;4970035;28;100144;-73
2022/04/04 04:00:05;;;;;;;11.68;6.03;;;;;;;;;;4953873;28;101897;-72
2022/04/04 04:02:32;;;;;;;12.65;6.90;;;;;;;;;;4972282;28;100614;-72
2022/04/04 04:05:00;;;;;;;11.52;6.28;;;;;;;;;;4955027;28;100187;-72
2022/04/04 04:07:26;;;;;;;9.35;5.72;;;;;;;;;;4972547;28;100110;-72
2022/04/04 04:09:53;;;;;;;12.77;6.13;;;;;;;;;;4953375;28;100268;-73
2022/04/04 04:12:20;;;;;;;11.95;5.97;;;;;;;;;;4954939;28;101622;-73
2022/04/04 04:14:48;;;;;;;9.95;6.28;;;;;;;;;;4954994;28;100221;-73
2022/04/04 04:17:15;;;;;;;13.85;6.82;;;;;;;;;;4972697;28;100084;-73
2022/04/04 04:22:28;;;;;;;13.10;6.32;;;;;;;;;;4957563;28;100717;-73
2022/04/04 04:24:55;;;;;;;11.07;6.38;;;;;;;;;;4955096;28;100288;-76
2022/04/04 04:27:21;;;;;;;14.43;6.78;;;;;;;;;;4972775;28;100194;-73
2022/04/04 04:29:48;;;;;;;13.15;6.72;;;;;;;;;;4949290;28;100425;-73
2022/04/04 04:32:15;;;;;;;13.00;6.95;;;;;;;;;;4954718;28;100055;-72
2022/04/04 04:34:46;;;;;;;10.50;6.40;;;;;;;;;;4971627;28;100121;-73
2022/04/04 04:37:13;;;;;;;11.90;5.90;;;;;;;;;;4949341;28;100100;-73
2022/04/04 04:39:40;;;;;;;12.18;7.43;;;;;;;;;;4954578;28;101869;-73
2022/04/04 04:42:07;;;;;;;11.05;6.50;;;;;;;;;;4937825;28;102028;-74
2022/04/04 04:44:34;;;;;;;12.18;6.97;;;;;;;;;;4972157;28;100822;-74
2022/04/04 04:47:00;;;;;;;11.63;6.60;;;;;;;;;;4971930;28;100074;-74
2022/04/04 04:49:27;;;;;;;11.98;7.38;;;;;;;;;;4971622;28;100639;-74
2022/04/04 04:51:54;;;;;;;14.23;7.90;;;;;;;;;;4954821;28;100665;-73
2022/04/04 04:54:21;;;;;;;15.48;7.50;;;;;;;;;;4954905;28;100098;-72
2022/04/04 04:56:48;;;;;;;17.05;8.18;;;;;;;;;;4972142;28;100006;-72
2022/04/04 04:59:15;;;;;;;12.82;7.75;;;;;;;;;;4937811;28;103118;-73
2022/04/04 05:01:41;;;;;;;12.75;7.65;;;;;;;;;;4971441;28;100854;-74
2022/04/04 05:04:08;;;;;;;14.70;8.45;;;;;;;;;;4938721;28;100099;-74
2022/04/04 05:06:35;;;;;;;14.80;8.02;;;;;;;;;;4954079;28;100164;-74
2022/04/04 05:09:02;;;;;;;13.70;8.13;;;;;;;;;;4971990;28;100263;-73
2022/04/04 05:11:29;;;;;;;13.40;8.38;;;;;;;;;;4971761;28;100660;-74
2022/04/04 05:13:56;;;;;;;12.65;8.18;;;;;;;;;;4972008;28;100157;-73
2022/04/04 05:16:28;;;;;;;16.98;8.25;;;;;;;;;;4955168;28;100153;-74
2022/04/04 05:18:58;;;;;;;12.63;8.77;;;;;;;;;;4938561;28;101183;-75
2022/04/04 05:21:25;;;;;;;12.43;8.27;;;;;;;;;;4954244;28;100597;-74
2022/04/04 05:23:52;;;;;;;15.25;9.85;;;;;;;;;;4971478;28;100183;-73
2022/04/04 05:26:19;;;;;;;14.25;9.73;;;;;;;;;;4954044;28;100718;-74
2022/04/04 05:28:45;;;;;;;16.75;9.55;;;;;;;;;;4971606;28;100388;-73
2022/04/04 05:31:12;;;;;;;17.75;9.35;;;;;;;;;;4954321;28;100584;-74
2022/04/04 05:33:39;;;;;;;14.77;8.52;;;;;;;;;;4971601;28;100133;-73
2022/04/04 05:36:06;;;;;;;12.00;8.38;;;;;;;;;;4954385;28;100050;-74
2022/04/04 05:38:33;;;;;;;15.63;8.55;;;;;;;;;;4954262;28;100319;-73
2022/04/04 05:41:00;;;;;;;13.48;8.18;;;;;;;;;;4971485;28;100573;-74
2022/04/04 05:43:27;;;;;;;11.57;6.78;;;;;;;;;;4954531;28;100131;-72
2022/04/04 05:45:54;;;;;;;14.68;7.95;;;;;;;;;;4937664;28;100007;-72
2022/04/04 05:48:25;;;;;;;13.75;8.20;;;;;;;;;;4953313;28;100310;-72
2022/04/04 05:50:53;;;;;;;15.85;7.47;;;;;;;;;;4969579;28;102918;-72
2022/04/04 05:53:20;;;;;;;13.27;7.72;;;;;;;;;;4953744;28;100868;-73
2022/04/04 05:55:47;;;;;;;12.40;7.78;;;;;;;;;;4937194;28;100199;-73
2022/04/04 05:58:15;;;;;;;13.20;8.00;;;;;;;;;;4971170;28;100304;-73
2022/04/04 06:00:41;;;;;;;12.35;7.20;;;;;;;;;;4953745;28;100855;-73
2022/04/04 06:03:08;;;;;;;13.00;7.50;;;;;;;;;;4970812;28;100054;-73
2022/04/04 06:05:35;;;;;;;11.57;7.07;;;;;;;;;;4954078;28;100030;-73
2022/04/04 06:08:03;;;;;;;14.88;8.02;;;;;;;;;;4937265;28;102277;-73
2022/04/04 06:10:29;;;;;;;13.75;8.00;;;;;;;;;;4970325;28;101688;-72
2022/04/04 06:12:56;;;;;;;11.32;7.15;;;;;;;;;;4970582;28;100075;-72
2022/04/04 06:15:23;;;;;;;12.18;7.32;;;;;;;;;;4937469;28;100097;-72
2022/04/04 06:17:50;;;;;;;14.13;7.53;;;;;;;;;;4964451;28;100364;-72
2022/04/04 06:20:18;;;;;;;13.15;8.27;;;;;;;;;;4936731;28;100554;-73
2022/04/04 06:22:46;;;;;;;9.57;6.32;;;;;;;;;;4953674;28;100210;-73
2022/04/04 06:25:13;;;;;;;11.93;6.55;;;;;;;;;;4953431;28;100175;-73
2022/04/04 06:27:40;;;;;;;9.85;5.75;;;;;;;;;;4952744;28;103464;-73
2022/04/04 06:30:07;;;;;;;7.53;5.22;;;;;;;;;;4953446;28;100662;-73
2022/04/04 06:32:34;;;;;;;7.45;4.72;;;;;;;;;;4970907;28;100128;-73
2022/04/04 06:35:05;;;;;;;6.18;4.80;;;;;;;;;;4951933;28;101443;-71
2022/04/04 06:37:32;;;;;;;9.20;4.70;;;;;;;;;;4951732;28;100484;-74
2022/04/04 06:39:59;;;;;;;8.98;4.75;;;;;;;;;;4970488;28;100517;-74
2022/04/04 06:42:26;;;;;;;9.95;5.22;;;;;;;;;;4970682;28;100028;-73
2022/04/04 06:44:57;;;;;;;6.18;4.32;;;;;;;;;;4970395;28;100138;-74
2022/04/04 06:47:26;;;;;;;7.07;5.07;;;;;;;;;;4969993;28;100325;-73
2022/04/04 06:49:53;;;;;;;7.38;4.97;;;;;;;;;;4969571;28;100530;-73
2022/04/04 06:52:20;;;;;;;7.45;5.10;;;;;;;;;;4969818;28;100086;-73
2022/04/04 06:54:47;;;;;;;7.18;4.80;;;;;;;;;;4970771;28;99963;-74
2022/04/04 06:57:18;;;;;;;7.57;4.97;;;;;;;;;;4969514;28;101581;-74
2022/04/04 06:59:45;;;;;;;9.68;5.22;;;;;;;;;;4951489;28;100603;-74
2022/04/04 07:02:12;;;;;;;7.63;5.20;;;;;;;;;;4950654;28;100089;-73
2022/04/04 07:04:40;;;;;;;7.28;4.95;;;;;;;;;;4950991;28;100064;-74
2022/04/04 07:07:07;;;;;;;6.95;4.78;;;;;;;;;;4949362;28;101058;-74
2022/04/04 07:09:35;;;;;;;5.75;4.10;;;;;;;;;;4935444;28;100747;-74
2022/04/04 07:12:03;;;;;;;6.15;4.55;;;;;;;;;;4933815;28;100174;-73
2022/04/04 07:14:31;;;;;;;7.15;5.20;;;;;;;;;;4951296;28;101351;-74
2022/04/04 07:16:58;;;;;;;8.38;5.10;;;;;;;;;;4968930;28;100273;-74
2022/04/04 07:19:30;;;;;;;7.88;4.75;;;;;;;;;;4969076;28;100616;-74
2022/04/04 07:21:56;;;;;;;8.35;4.35;;;;;;;;;;4969057;28;100161;-73
2022/04/04 07:24:23;;;;;;;6.65;4.70;;;;;;;;;;4968534;28;100290;-72
2022/04/04 07:26:50;;;;;;;9.57;5.07;;;;;;;;;;4932898;28;100346;-73
2022/04/04 07:29:20;;;;;;;6.40;4.68;;;;;;;;;;4950522;28;101927;-73
2022/04/04 07:31:50;;;;;;;8.05;5.07;;;;;;;;;;4903476;28;100091;-75
2022/04/04 07:34:17;;;;;;;7.25;5.32;;;;;;;;;;4949950;28;100197;-73
2022/04/04 07:36:44;;;;;;;9.43;4.57;;;;;;;;;;4951973;28;101984;-74
2022/04/04 07:39:11;;;;;;;7.20;4.90;;;;;;;;;;4967021;28;100622;-73
2022/04/04 07:41:38;;;;;;;8.02;4.93;;;;;;;;;;4949786;28;100211;-74
2022/04/04 07:44:05;;;;;;;7.35;4.97;;;;;;;;;;4932556;28;101534;-74
2022/04/04 07:46:32;;;;;;;7.30;5.20;;;;;;;;;;4930452;28;102304;-74
2022/04/04 07:48:59;;;;;;;7.05;4.63;;;;;;;;;;4950948;28;100737;-73
2022/04/04 07:51:26;;;;;;;6.65;4.43;;;;;;;;;;4967309;28;100220;-73
2022/04/04 07:53:53;;;;;;;7.75;5.47;;;;;;;;;;4968082;28;100143;-73
2022/04/04 07:56:20;;;;;;;5.90;4.47;;;;;;;;;;4966510;28;100327;-74
2022/04/04 07:58:47;;;;;;;7.60;4.95;;;;;;;;;;4950403;28;100606;-74
2022/04/04 08:01:14;;;;;;;6.63;4.60;;;;;;;;;;4950027;28;100150;-74
2022/04/04 08:03:44;;;;;;;6.93;4.78;;;;;;;;;;4950304;28;100187;-74
2022/04/04 08:06:11;;;;;;;7.68;4.65;;;;;;;;;;4965908;28;100267;-74
2022/04/04 08:08:38;;;;;;;8.55;4.85;;;;;;;;;;4966173;28;100035;-73
2022/04/04 08:11:08;;;;;;;10.75;5.63;;;;;;;;;;4966953;28;100160;-74
2022/04/04 08:13:34;;;;;;;7.32;5.55;;;;;;;;;;4968218;28;101241;-73
2022/04/04 08:16:02;;;;;;;7.00;5.38;;;;;;;;;;4965046;28;101114;-74
2022/04/04 08:18:29;;;;;;;8.20;5.65;;;;;;;;;;4967099;28;100749;-74
2022/04/04 08:20:57;;;;;;;7.65;5.32;;;;;;;;;;4967279;28;100435;-74
2022/04/04 08:23:31;;;;;;;8.38;5.07;;;;;;;;;;4950318;28;100126;-74
2022/04/04 08:25:59;;;;;;;7.93;5.07;;;;;;;;;;4952727;28;100317;-73
2022/04/04 08:28:30;;;;;;;7.85;5.60;;;;;;;;;;4950247;28;100730;-74
2022/04/04 08:30:57;;;;;;;9.35;5.43;;;;;;;;;;4950442;28;100380;-74
2022/04/04 08:33:24;;;;;;;8.95;5.80;;;;;;;;;;4951603;28;100054;-74
2022/04/04 08:35:53;;;;;;;8.38;5.32;;;;;;;;;;4950534;28;100367;-74
2022/04/04 08:38:21;;;;;;;8.00;5.70;;;;;;;;;;4950940;28;100692;-73
2022/04/04 08:40:49;;;;;;;8.35;5.55;;;;;;;;;;4950677;28;100500;-73
2022/04/04 08:43:17;;;;;;;7.90;5.40;;;;;;;;;;4950542;28;100219;-74
2022/04/04 08:45:45;;;;;;;7.88;5.80;;;;;;;;;;4937890;28;100349;-74
2022/04/04 08:48:12;;;;;;;9.82;5.97;;;;;;;;;;4937673;28;100595;-73
2022/04/04 08:50:39;;;;;;;12.90;6.25;;;;;;;;;;4971876;28;100122;-73
2022/04/04 08:53:06;;;;;;;8.23;6.00;;;;;;;;;;4969918;28;100157;-74
2022/04/04 08:55:34;;;;;;;8.60;6.38;;;;;;;;;;4953676;28;100399;-73
2022/04/04 08:58:02;;;;;;;7.93;6.03;;;;;;;;;;4954262;28;100724;-73
2022/04/04 09:00:29;;;;;;;6.78;5.93;;;;;;;;;;4955668;28;100833;-74
2022/04/04 09:02:58;;;;;;;8.55;6.25;;;;;;;;;;4952692;28;100608;-73
2022/04/04 09:05:29;;;;;;;8.15;6.10;;;;;;;;;;4920155;28;103015;-74
2022/04/04 09:08:04;;;;;;;8.75;6.20;;;;;;;;;;4954194;28;100860;-73
2022/04/04 09:10:39;;;;;;;11.77;6.70;;;;;;;;;;4954152;28;100167;-74
2022/04/04 09:13:12;;;;;;;8.00;6.20;;;;;;;;;;4951979;28;100256;-74
2022/04/04 09:15:54;;;;;;;9.43;6.65;;;;;;;;;;4953001;28;101393;-73
2022/04/04 09:18:45;;;;;;;8.88;6.38;;;;;;;;;;4970369;28;100661;-74
2022/04/04 09:21:18;;;;;;;9.77;6.80;;;;;;;;;;4938390;28;100223;-74
2022/04/04 09:23:45;;;;;;;9.85;6.50;;;;;;;;;;4971254;28;100045;-74
2022/04/04 09:26:30;;;;;;;9.07;7.05;;;;;;;;;;4969639;28;100839;-74
2022/04/04 09:28:58;;;;;;;7.88;6.65;;;;;;;;;;4968967;28;100641;-73
2022/04/04 09:31:25;;;;;;;8.38;6.22;;;;;;;;;;4969675;28;100290;-74
2022/04/04 09:33:52;;;;;;;8.73;6.53;;;;;;;;;;4953591;28;100139;-73
2022/04/04 09:36:19;;;;;;;8.35;7.30;;;;;;;;;;4970663;28;100495;-73
2022/04/04 09:39:08;;;;;;;10.77;7.68;;;;;;;;;;4952785;28;100859;-73
2022/04/04 09:41:39;;;;;;;9.07;6.22;;;;;;;;;;4969868;28;100176;-73
2022/04/04 09:44:07;;;;;;;10.63;6.95;;;;;;;;;;4970357;28;99981;-73
2022/04/04 09:46:39;;;;;;;11.23;6.32;;;;;;;;;;4935754;28;100455;-73
2022/04/04 09:49:13;;;;;;;12.82;6.68;;;;;;;;;;4953432;28;100574;-74
2022/04/04 09:51:53;;;;;;;9.43;6.97;;;;;;;;;;4966619;28;100677;-74
2022/04/04 09:54:26;;;;;;;8.40;6.75;;;;;;;;;;4952931;28;100208;-73
2022/04/04 09:57:14;;;;;;;8.75;6.50;;;;;;;;;;4919366;28;100558;-73
2022/04/04 09:59:41;;;;;;;8.13;5.85;;;;;;;;;;4969276;28;100631;-74
2022/04/04 10:02:12;;;;;;;10.82;6.90;;;;;;;;;;4919575;28;100196;-73
2022/04/04 10:04:44;;;;;;;9.55;7.07;;;;;;;;;;4953259;28;99996;-74
2022/04/04 10:07:11;;;;;;;8.43;6.10;;;;;;;;;;4952162;28;100553;-74
2022/04/04 10:09:38;;;;;;;9.25;6.07;;;;;;;;;;4936363;28;100551;-74
2022/04/04 10:12:05;;;;;;;8.80;6.28;;;;;;;;;;4969052;28;100046;-74
2022/04/04 10:14:32;;;;;;;10.95;7.03;;;;;;;;;;4953810;28;100277;-74
2022/04/04 10:16:59;;;;;;;7.97;5.93;;;;;;;;;;4952560;28;100264;-74
2022/04/04 10:19:27;;;;;;;8.82;5.82;;;;;;;;;;4952701;28;100610;-73
2022/04/04 10:21:54;;;;;;;8.10;6.28;;;;;;;;;;4952099;28;103321;-73
2022/04/04 10:24:20;;;;;;;8.60;6.28;;;;;;;;;;4953012;28;100191;-73
2022/04/04 10:26:48;;;;;;;8.35;5.95;;;;;;;;;;4935933;28;102853;-73
2022/04/04 10:29:20;;;;;;;10.13;6.30;;;;;;;;;;4935942;28;100610;-73
2022/04/04 10:31:51;;;;;;;7.80;5.53;;;;;;;;;;4970205;28;100057;-73
2022/04/04 10:34:23;;;;;;;6.22;5.40;;;;;;;;;;4970036;28;100126;-73
2022/04/04 10:36:56;;;;;;;7.20;5.35;;;;;;;;;;4952129;28;100460;-73
2022/04/04 10:39:39;;;;;;;7.85;5.68;;;;;;;;;;4951989;28;104016;-73
2022/04/04 10:42:33;;;;;;;6.82;5.03;;;;;;;;;;4970536;28;100195;-73
2022/04/04 10:45:21;;;;;;;7.95;4.80;;;;;;;;;;4966492;28;100815;-73
2022/04/04 10:47:48;;;;;;;10.23;5.38;;;;;;;;;;4969112;28;101531;-72
2022/04/04 10:50:22;;;;;;;6.70;4.88;;;;;;;;;;4969282;28;100545;-73
2022/04/04 10:52:50;;;;;;;6.85;4.78;;;;;;;;;;4968252;28;100260;-72
2022/04/04 10:55:24;;;;;;;9.05;4.63;;;;;;;;;;4969556;28;100094;-73
2022/04/04 10:57:59;;;;;;;7.82;5.05;;;;;;;;;;4969443;28;100999;-74
2022/04/04 11:00:34;;;;;;;6.30;4.30;;;;;;;;;;4952526;28;100601;-74
2022/04/04 11:03:01;;;;;;;7.32;4.88;;;;;;;;;;4952612;28;100204;-73
2022/04/04 11:08:32;;;;;;;7.28;4.93;;;;;;;;;;4927056;28;101545;-72
2022/04/04 11:10:59;;;;;;;11.23;5.45;;;;;;;;;;4929724;28;101911;-72
2022/04/04 11:13:26;;;;;;;8.30;4.82;;;;;;;;;;4890486;28;100259;-72
2022/04/04 11:15:54;;;;;;;9.38;4.53;;;;;;;;;;4928919;28;100106;-72
2022/04/04 11:18:27;;;;;;;8.57;4.60;;;;;;;;;;4929133;28;102053;-72
2022/04/04 11:20:59;;;;;;;7.20;4.13;;;;;;;;;;4912567;28;100637;-73
2022/04/04 11:23:27;;;;;;;7.75;4.82;;;;;;;;;;4929409;28;100099;-72
2022/04/04 11:25:54;;;;;;;6.38;3.72;;;;;;;;;;4912196;28;100149;-72
2022/04/04 11:28:24;;;;;;;6.70;4.13;;;;;;;;;;4928945;28;100482;-73
2022/04/04 11:30:52;;;;;;;5.80;3.70;;;;;;;;;;4928520;28;101751;-73
2022/04/04 11:33:23;;;;;;;5.35;3.72;;;;;;;;;;4928780;28;100131;-72
2022/04/04 11:35:51;;;;;;;8.07;4.32;;;;;;;;;;4932835;28;100746;-73
2022/04/04 11:38:20;;;;;;;6.00;3.55;;;;;;;;;;4928225;28;100249;-73
2022/04/04 11:40:55;;;;;;;8.27;4.00;;;;;;;;;;4911864;28;101150;-73
2022/04/04 11:43:23;;;;;;;7.20;3.80;;;;;;;;;;4929263;28;100092;-73
2022/04/04 11:45:52;;;;;;;6.45;3.97;;;;;;;;;;4929291;28;100067;-73
2022/04/04 11:48:26;;;;;;;6.60;4.30;;;;;;;;;;4930051;28;101535;-73
2022/04/04 11:50:57;;;;;;;5.50;4.18;;;;;;;;;;4925973;28;100631;-73
2022/04/04 11:53:26;;;;;;;6.57;4.35;;;;;;;;;;4929434;28;100036;-73
2022/04/04 11:56:00;;;;;;;6.43;3.55;;;;;;;;;;4928355;28;100174;-73
2022/04/04 11:58:27;;;;;;;6.68;3.65;;;;;;;;;;4913277;28;100805;-74
2022/04/04 12:01:00;;;;;;;5.00;3.78;;;;;;;;;;4929835;28;100832;-73
2022/04/04 12:03:27;;;;;;;8.32;3.67;;;;;;;;;;4927067;28;100288;-73
2022/04/04 12:05:55;;;;;;;5.45;3.53;;;;;;;;;;4936822;28;100208;-73
2022/04/04 12:08:23;;;;;;;6.75;3.65;;;;;;;;;;4945691;28;100333;-73
2022/04/04 12:10:50;;;;;;;4.95;4.03;;;;;;;;;;4947932;28;100638;-73
2022/04/04 12:13:19;;;;;;;8.27;4.03;;;;;;;;;;4942979;28;100373;-73
2022/04/04 12:15:50;;;;;;;4.88;3.97;;;;;;;;;;4927605;28;100289;-74
2022/04/04 12:18:23;;;;;;;6.15;4.00;;;;;;;;;;4911467;28;101624;-73
2022/04/04 12:20:51;;;;;;;4.93;3.40;;;;;;;;;;4949563;28;100612;-73
2022/04/04 12:26:07;;;;;;;9.05;4.43;;;;;;;;;;4950312;28;100189;-74
2022/04/04 12:28:39;;;;;;;5.82;4.07;;;;;;;;;;4948137;28;100558;-73
2022/04/04 12:31:14;;;;;;;5.82;3.80;;;;;;;;;;4932205;28;100619;-73
2022/04/04 12:33:41;;;;;;;4.97;3.67;;;;;;;;;;4949349;28;100333;-73
2022/04/04 12:36:08;;;;;;;5.10;3.58;;;;;;;;;;4933483;28;100118;-73
2022/04/04 12:38:36;;;;;;;6.68;3.58;;;;;;;;;;4949932;28;100267;-74
2022/04/04 12:41:11;;;;;;;5.07;3.65;;;;;;;;;;4949077;28;100684;-74
2022/04/04 12:43:40;;;;;;;5.57;3.80;;;;;;;;;;4963552;28;100302;-73
2022/04/04 12:46:19;;;;;;;7.25;3.58;;;;;;;;;;4933351;28;100145;-74
2022/04/04 12:48:46;;;;;;;4.22;3.47;;;;;;;;;;4948945;28;101860;-74
2022/04/04 12:51:29;;;;;;;6.68;3.80;;;;;;;;;;4947783;28;100932;-73
2022/04/04 12:53:58;;;;;;;6.05;3.80;;;;;;;;;;4948621;28;101283;-72
2022/04/04 12:56:27;;;;;;;5.38;3.20;;;;;;;;;;4942262;28;100645;-72
2022/04/04 12:59:08;;;;;;;5.63;3.70;;;;;;;;;;4927929;28;101075;-72
2022/04/04 13:01:35;;;;;;;4.72;3.40;;;;;;;;;;4949855;28;100707;-73
2022/04/04 13:04:21;;;;;;;5.80;3.85;;;;;;;;;;4931066;28;100386;-72
2022/04/04 13:06:48;;;;;;;6.57;3.70;;;;;;;;;;4933322;28;100261;-73
2022/04/04 13:09:24;;;;;;;4.93;3.55;;;;;;;;;;4950184;28;101568;-73
2022/04/04 13:11:52;;;;;;;4.35;2.90;;;;;;;;;;4947486;28;101163;-73
2022/04/04 13:14:21;;;;;;;6.47;3.42;;;;;;;;;;4950487;28;100291;-73
2022/04/04 13:16:52;;;;;;;4.80;3.50;;;;;;;;;;4950348;28;100108;-73
2022/04/04 13:19:20;;;;;;;5.10;3.35;;;;;;;;;;4949680;28;101089;-73
2022/04/04 13:21:50;;;;;;;6.43;3.20;;;;;;;;;;4950032;28;102319;-73
2022/04/04 13:24:17;;;;;;;6.35;3.45;;;;;;;;;;4949343;28;100086;-73
2022/04/04 13:26:48;;;;;;;4.43;3.33;;;;;;;;;;4950387;28;100028;-73
2022/04/04 13:29:16;;;;;;;6.00;3.70;;;;;;;;;;4954788;28;100386;-73
2022/04/04 13:31:43;;;;;;;4.95;3.60;;;;;;;;;;4951133;28;100638;-73
2022/04/04 13:34:10;;;;;;;5.13;3.42;;;;;;;;;;4952490;28;100269;-73
2022/04/04 13:36:37;;;;;;;5.30;3.17;;;;;;;;;;4950415;28;100356;-73
2022/04/04 13:39:10;;;;;;;6.65;3.67;;;;;;;;;;4950902;28;100246;-73
2022/04/04 13:41:37;;;;;;;6.68;3.40;;;;;;;;;;4951239;28;101847;-73
2022/04/04 13:44:05;;;;;;;5.75;3.60;;;;;;;;;;4950735;28;100036;-73
2022/04/04 13:46:31;;;;;;;5.30;3.38;;;;;;;;;;4932857;28;100113;-73
2022/04/04 13:48:58;;;;;;;6.88;3.83;;;;;;;;;;4950931;28;100402;-73
2022/04/04 13:51:26;;;;;;;4.95;3.28;;;;;;;;;;4951435;28;100728;-73
2022/04/04 13:54:00;;;;;;;5.80;3.60;;;;;;;;;;4951961;28;100207;-74
2022/04/04 13:56:29;;;;;;;6.10;3.33;;;;;;;;;;4948987;28;100176;-73
2022/04/04 13:58:56;;;;;;;4.80;3.22;;;;;;;;;;4946842;28;101436;-73
2022/04/04 14:01:24;;;;;;;5.43;3.67;;;;;;;;;;4947494;28;100840;-73
2022/04/04 14:03:51;;;;;;;4.53;2.97;;;;;;;;;;4950359;28;100297;-73
2022/04/04 14:06:23;;;;;;;6.95;3.70;;;;;;;;;;4950638;28;100208;-73
2022/04/04 14:08:51;;;;;;;5.90;3.60;;;;;;;;;;4932351;28;104055;-73
2022/04/04 14:11:18;;;;;;;5.38;3.60;;;;;;;;;;4947537;28;100595;-73
2022/04/04 14:13:46;;;;;;;5.57;3.45;;;;;;;;;;4950272;28;100456;-73
2022/04/04 14:16:13;;;;;;;6.10;3.58;;;;;;;;;;4950668;28;102602;-73
2022/04/04 14:18:40;;;;;;;6.45;3.10;;;;;;;;;;4950116;28;100349;-73
2022/04/04 14:21:08;;;;;;;5.25;3.22;;;;;;;;;;4948541;28;101619;-72
2022/04/04 14:23:37;;;;;;;6.18;3.35;;;;;;;;;;4949874;28;101511;-72
2022/04/04 14:26:04;;;;;;;4.72;3.10;;;;;;;;;;4950841;28;100158;-73
2022/04/04 14:28:33;;;;;;;5.28;3.30;;;;;;;;;;4951304;28;100965;-72
2022/04/04 14:31:00;;;;;;;5.22;3.13;;;;;;;;;;4951110;28;100812;-73
2022/04/04 14:33:28;;;;;;;4.63;3.38;;;;;;;;;;4921497;28;100220;-73
2022/04/04 14:35:56;;;;;;;7.35;3.30;;;;;;;;;;4950934;28;101979;-73
2022/04/04 14:38:23;;;;;;;5.65;3.25;;;;;;;;;;4949045;28;100461;-73
2022/04/04 14:40:49;;;;;;;5.40;3.20;;;;;;;;;;4949742;28;101173;-73
2022/04/04 14:43:16;;;;;;;4.65;3.40;;;;;;;;;;4952787;28;100034;-74